Skip to main content.
Our real time weather data is updated when you reload the page  -  This page was updated at 14:47 AM on 25/4/2019
 TIME   TEMPERATURE   WINDSPEED   DIRECTION   HUMIDITY   BAROMETER   RAINFALL 
10:10 18.0°C (64.4°F) 27.8 kmh (17.3 mph) ENE 88% 1015.9hPa (30.00 inHg) 0.0mm (0.00 in.)
9:10 17.0°C (62.6 °F) 24.1 kmh (15.0 mph) ENE 93% 1015.9hPa (30.00 inHg) 0.0mm (0.00 in.)
8:10 16.0°C (60.8 °F) 25.9 kmh (16.1 mph) ENE 100% 1014.9hPa (29.97 inHg) 0.0mm (0.00 in.)
7:10 16.0°C (60.8 °F) 18.5 kmh (11.5 mph) ENE 100% 1014.9hPa (29.97 inHg) 0.0mm (0.00 in.)
6:10 16.0°C (60.8 °F) 20.4 kmh (12.7 mph) ENE 100% 1013.9hPa (29.94 inHg) 0.0mm (0.00 in.)
5:10 16.0°C (60.8 °F) 20.4 kmh (12.7 mph) ENE 100% 1013.9hPa (29.94 inHg) 0.0mm (0.00 in.)
4:10 16.0°C (60.8 °F) 24.1 kmh (15.0 mph) NNE 100% 1013.9hPa (29.94 inHg) 0.0mm (0.00 in.)
3:10 16.0°C (60.8 °F) 18.5 kmh (11.5 mph) NNE 100% 1013.9hPa (29.94 inHg) 0.0mm (0.00 in.)
2:10 16.0°C (60.8 °F) 9.3 kmh (5.8 mph) NE 100% 1014.9hPa (29.97 inHg) 0.0mm (0.00 in.)
1:10 16.0°C (60.8 °F) 20.4 kmh (12.7 mph) ENE 100% 1015.9hPa (30.00 inHg) 0.0mm (0.00 in.)
12:10 16.0°C (60.8 °F) 22.2 kmh (13.8 mph) NE 100% 1014.9hPa (29.97 inHg) 0.0mm (0.00 in.)
11:10 17.0°C (62.6 °F) 18.5 kmh (11.5 mph) ENE 93% 1014.9hPa (29.97 inHg) 0.0mm (0.00 in.)
10:10 17.0°C (62.6 °F) 25.9 kmh (16.1 mph) NE 88% 1014.9hPa (29.97 inHg) 0.0mm (0.00 in.)
9:10 16.0°C (60.8 °F) 25.9 kmh (16.1 mph) NE 100% 1013.9hPa (29.94 inHg) 0.0mm (0.00 in.)
8:10 17.0°C (62.6 °F) 33.3 kmh (20.7 mph) NE 88% 1012.9hPa (29.91 inHg) 0.0mm (0.00 in.)
7:10 17.0°C (62.6 °F) 27.8 kmh (17.3 mph) ENE 88% 1012.9hPa (29.91 inHg) 0.0mm (0.00 in.)
6:10 18.0°C (64.4 °F) 25.9 kmh (16.1 mph) ENE 82% 1013.9hPa (29.94 inHg) 0.0mm (0.00 in.)
5:10 19.0°C (66.2 °F) 20.4 kmh (12.7 mph) E 77% 1012.9hPa (29.91 inHg) 0.0mm (0.00 in.)
4:10 19.0°C (66.2 °F) 18.5 kmh (11.5 mph) E 77% 1013.9hPa (29.94 inHg) 0.0mm (0.00 in.)
3:10 19.0°C (66.2 °F) 29.6 kmh (18.4 mph) ENE 77% 1012.9hPa (29.91 inHg) 0.0mm (0.00 in.)
2:10 20.0°C (68.0 °F) 22.2 kmh (13.8 mph) ENE 72% 1013.9hPa (29.94 inHg) 0.0mm (0.00 in.)
1:10 19.0°C (66.2 °F) 27.8 kmh (17.3 mph) E 82% 1013.9hPa (29.94 inHg) 0.0mm (0.00 in.)
12:10 19.0°C (66.2 °F) 25.9 kmh (16.1 mph) ENE 82% 1013.9hPa (29.94 inHg) 0.0mm (0.00 in.)
11:10 18.0°C (64.4 °F) 24.1 kmh (15.0 mph) ENE 88% 1013.9hPa (29.94 inHg) 0.0mm (0.00 in.)